sensor_id;sensor_type;location;lat;lon;timestamp;temperature;humidity
14095;DHT22;18096;48.142;16.290;2022-07-23T00:00:46;25.00;63.50
14095;DHT22;18096;48.142;16.290;2022-07-23T00:03:12;24.90;63.30
14095;DHT22;18096;48.142;16.290;2022-07-23T00:05:38;24.90;63.50
14095;DHT22;18096;48.142;16.290;2022-07-23T00:08:04;24.90;63.60
14095;DHT22;18096;48.142;16.290;2022-07-23T00:10:31;24.80;63.60
14095;DHT22;18096;48.142;16.290;2022-07-23T00:12:56;24.80;64.00
14095;DHT22;18096;48.142;16.290;2022-07-23T00:15:22;24.80;63.50
14095;DHT22;18096;48.142;16.290;2022-07-23T00:17:48;24.80;63.40
14095;DHT22;18096;48.142;16.290;2022-07-23T00:20:14;24.80;63.30
14095;DHT22;18096;48.142;16.290;2022-07-23T00:22:50;24.70;63.40
14095;DHT22;18096;48.142;16.290;2022-07-23T00:25:16;24.70;63.50
14095;DHT22;18096;48.142;16.290;2022-07-23T00:27:42;24.70;63.50
14095;DHT22;18096;48.142;16.290;2022-07-23T00:30:08;24.70;63.50
14095;DHT22;18096;48.142;16.290;2022-07-23T00:32:47;24.70;63.60
14095;DHT22;18096;48.142;16.290;2022-07-23T00:35:14;24.60;63.90
14095;DHT22;18096;48.142;16.290;2022-07-23T00:37:39;24.60;63.90
14095;DHT22;18096;48.142;16.290;2022-07-23T00:40:05;24.60;64.10
14095;DHT22;18096;48.142;16.290;2022-07-23T00:42:32;24.70;63.90
14095;DHT22;18096;48.142;16.290;2022-07-23T00:44:58;24.70;63.00
14095;DHT22;18096;48.142;16.290;2022-07-23T00:47:23;24.80;62.60
14095;DHT22;18096;48.142;16.290;2022-07-23T00:49:49;24.80;62.20
14095;DHT22;18096;48.142;16.290;2022-07-23T00:52:15;24.80;62.10
14095;DHT22;18096;48.142;16.290;2022-07-23T00:54:41;24.80;62.00
14095;DHT22;18096;48.142;16.290;2022-07-23T00:57:07;24.90;62.00
14095;DHT22;18096;48.142;16.290;2022-07-23T00:59:33;24.90;62.00
14095;DHT22;18096;48.142;16.290;2022-07-23T01:01:59;24.90;61.80
14095;DHT22;18096;48.142;16.290;2022-07-23T01:04:24;24.90;61.60
14095;DHT22;18096;48.142;16.290;2022-07-23T01:06:50;24.90;61.40
14095;DHT22;18096;48.142;16.290;2022-07-23T01:09:16;25.00;61.30
14095;DHT22;18096;48.142;16.290;2022-07-23T01:11:42;25.00;61.00
14095;DHT22;18096;48.142;16.290;2022-07-23T01:14:18;25.00;60.80
14095;DHT22;18096;48.142;16.290;2022-07-23T01:16:46;25.10;60.70
14095;DHT22;18096;48.142;16.290;2022-07-23T01:19:13;25.00;60.90
14095;DHT22;18096;48.142;16.290;2022-07-23T01:21:44;25.00;61.00
14095;DHT22;18096;48.142;16.290;2022-07-23T01:24:11;25.00;60.60
14095;DHT22;18096;48.142;16.290;2022-07-23T01:26:38;25.10;60.40
14095;DHT22;18096;48.142;16.290;2022-07-23T01:29:04;25.10;60.20
14095;DHT22;18096;48.142;16.290;2022-07-23T01:31:30;25.20;60.10
14095;DHT22;18096;48.142;16.290;2022-07-23T01:33:56;25.20;60.00
14095;DHT22;18096;48.142;16.290;2022-07-23T01:36:22;25.20;60.00
14095;DHT22;18096;48.142;16.290;2022-07-23T01:38:49;25.30;60.40
14095;DHT22;18096;48.142;16.290;2022-07-23T01:41:15;25.30;60.80
14095;DHT22;18096;48.142;16.290;2022-07-23T01:43:40;25.30;61.10
14095;DHT22;18096;48.142;16.290;2022-07-23T01:46:06;25.30;61.30
14095;DHT22;18096;48.142;16.290;2022-07-23T01:48:32;25.40;61.40
14095;DHT22;18096;48.142;16.290;2022-07-23T01:50:57;25.40;61.70
14095;DHT22;18096;48.142;16.290;2022-07-23T01:53:23;25.50;61.80
14095;DHT22;18096;48.142;16.290;2022-07-23T01:55:49;25.50;61.80
14095;DHT22;18096;48.142;16.290;2022-07-23T01:58:14;25.60;61.90
14095;DHT22;18096;48.142;16.290;2022-07-23T02:00:40;25.60;62.00
14095;DHT22;18096;48.142;16.290;2022-07-23T02:03:06;25.60;62.00
14095;DHT22;18096;48.142;16.290;2022-07-23T02:05:31;25.60;62.20
14095;DHT22;18096;48.142;16.290;2022-07-23T02:07:58;25.70;62.40
14095;DHT22;18096;48.142;16.290;2022-07-23T02:10:24;25.70;62.60
14095;DHT22;18096;48.142;16.290;2022-07-23T02:12:50;25.70;62.50
14095;DHT22;18096;48.142;16.290;2022-07-23T02:15:16;25.70;62.50
14095;DHT22;18096;48.142;16.290;2022-07-23T02:17:42;25.80;62.50
14095;DHT22;18096;48.142;16.290;2022-07-23T02:20:09;25.80;62.40
14095;DHT22;18096;48.142;16.290;2022-07-23T02:22:35;25.80;62.40
14095;DHT22;18096;48.142;16.290;2022-07-23T02:25:02;25.80;62.80
14095;DHT22;18096;48.142;16.290;2022-07-23T02:27:28;25.80;62.90
14095;DHT22;18096;48.142;16.290;2022-07-23T02:29:54;25.80;63.00
14095;DHT22;18096;48.142;16.290;2022-07-23T02:32:19;25.80;63.20
14095;DHT22;18096;48.142;16.290;2022-07-23T02:34:47;25.80;63.40
14095;DHT22;18096;48.142;16.290;2022-07-23T02:37:13;25.80;63.80
14095;DHT22;18096;48.142;16.290;2022-07-23T02:39:39;25.80;63.80
14095;DHT22;18096;48.142;16.290;2022-07-23T02:42:04;25.80;63.60
14095;DHT22;18096;48.142;16.290;2022-07-23T02:44:30;25.80;63.80
14095;DHT22;18096;48.142;16.290;2022-07-23T02:46:56;25.80;64.00
14095;DHT22;18096;48.142;16.290;2022-07-23T02:49:21;25.90;63.90
14095;DHT22;18096;48.142;16.290;2022-07-23T02:51:47;25.90;63.80
14095;DHT22;18096;48.142;16.290;2022-07-23T02:54:12;25.90;63.90
14095;DHT22;18096;48.142;16.290;2022-07-23T02:56:38;25.90;63.90
14095;DHT22;18096;48.142;16.290;2022-07-23T02:59:04;25.80;63.80
14095;DHT22;18096;48.142;16.290;2022-07-23T03:01:29;25.80;63.80
14095;DHT22;18096;48.142;16.290;2022-07-23T03:03:55;25.80;63.70
14095;DHT22;18096;48.142;16.290;2022-07-23T03:06:20;25.90;63.80
14095;DHT22;18096;48.142;16.290;2022-07-23T03:08:46;25.90;63.80
14095;DHT22;18096;48.142;16.290;2022-07-23T03:11:12;25.80;63.80
14095;DHT22;18096;48.142;16.290;2022-07-23T03:13:38;25.80;63.80
14095;DHT22;18096;48.142;16.290;2022-07-23T03:16:04;25.80;63.80
14095;DHT22;18096;48.142;16.290;2022-07-23T03:18:30;25.80;63.90
14095;DHT22;18096;48.142;16.290;2022-07-23T03:20:56;25.80;64.20
14095;DHT22;18096;48.142;16.290;2022-07-23T03:23:22;25.80;64.50
14095;DHT22;18096;48.142;16.290;2022-07-23T03:25:47;25.70;64.80
14095;DHT22;18096;48.142;16.290;2022-07-23T03:28:14;25.70;64.80
14095;DHT22;18096;48.142;16.290;2022-07-23T03:30:41;25.70;64.90
14095;DHT22;18096;48.142;16.290;2022-07-23T03:33:07;25.60;65.40
14095;DHT22;18096;48.142;16.290;2022-07-23T03:35:33;25.60;65.70
14095;DHT22;18096;48.142;16.290;2022-07-23T03:37:59;25.50;65.30
14095;DHT22;18096;48.142;16.290;2022-07-23T03:40:24;25.50;65.30
14095;DHT22;18096;48.142;16.290;2022-07-23T03:42:50;25.50;65.40
14095;DHT22;18096;48.142;16.290;2022-07-23T03:45:16;25.50;65.50
14095;DHT22;18096;48.142;16.290;2022-07-23T03:47:41;25.40;65.50
14095;DHT22;18096;48.142;16.290;2022-07-23T03:50:08;25.40;65.90
14095;DHT22;18096;48.142;16.290;2022-07-23T03:52:34;25.30;65.80
14095;DHT22;18096;48.142;16.290;2022-07-23T03:55:00;25.30;66.00
14095;DHT22;18096;48.142;16.290;2022-07-23T03:57:25;25.20;66.10
14095;DHT22;18096;48.142;16.290;2022-07-23T03:59:51;25.20;66.20
14095;DHT22;18096;48.142;16.290;2022-07-23T04:02:16;25.20;66.40
14095;DHT22;18096;48.142;16.290;2022-07-23T04:04:42;25.10;66.50
14095;DHT22;18096;48.142;16.290;2022-07-23T04:07:08;25.10;66.70
14095;DHT22;18096;48.142;16.290;2022-07-23T04:09:33;25.00;66.60
14095;DHT22;18096;48.142;16.290;2022-07-23T04:11:59;25.10;66.90
14095;DHT22;18096;48.142;16.290;2022-07-23T04:14:25;25.00;66.70
14095;DHT22;18096;48.142;16.290;2022-07-23T04:16:50;25.10;67.00
14095;DHT22;18096;48.142;16.290;2022-07-23T04:19:16;25.10;67.40
14095;DHT22;18096;48.142;16.290;2022-07-23T04:21:42;25.10;67.20
14095;DHT22;18096;48.142;16.290;2022-07-23T04:24:07;25.10;67.30
14095;DHT22;18096;48.142;16.290;2022-07-23T04:26:33;25.10;67.50
14095;DHT22;18096;48.142;16.290;2022-07-23T04:28:59;25.10;67.70
14095;DHT22;18096;48.142;16.290;2022-07-23T04:31:24;25.10;67.80
14095;DHT22;18096;48.142;16.290;2022-07-23T04:33:50;25.20;67.20
14095;DHT22;18096;48.142;16.290;2022-07-23T04:36:15;25.20;66.60
14095;DHT22;18096;48.142;16.290;2022-07-23T04:38:41;25.30;66.70
14095;DHT22;18096;48.142;16.290;2022-07-23T04:41:07;25.30;67.10
14095;DHT22;18096;48.142;16.290;2022-07-23T04:43:32;25.40;66.50
14095;DHT22;18096;48.142;16.290;2022-07-23T04:45:58;25.40;66.00
14095;DHT22;18096;48.142;16.290;2022-07-23T04:48:23;25.40;65.80
14095;DHT22;18096;48.142;16.290;2022-07-23T04:50:49;25.50;65.10
14095;DHT22;18096;48.142;16.290;2022-07-23T04:53:15;25.60;64.70
14095;DHT22;18096;48.142;16.290;2022-07-23T04:55:40;25.70;64.40
14095;DHT22;18096;48.142;16.290;2022-07-23T04:58:06;25.70;64.00
14095;DHT22;18096;48.142;16.290;2022-07-23T05:00:31;25.80;63.60
14095;DHT22;18096;48.142;16.290;2022-07-23T05:02:57;25.80;63.60
14095;DHT22;18096;48.142;16.290;2022-07-23T05:05:23;25.80;63.90
14095;DHT22;18096;48.142;16.290;2022-07-23T05:07:48;25.80;63.70
14095;DHT22;18096;48.142;16.290;2022-07-23T05:10:14;25.80;63.30
14095;DHT22;18096;48.142;16.290;2022-07-23T05:12:40;25.80;62.90
14095;DHT22;18096;48.142;16.290;2022-07-23T05:15:05;25.90;62.00
14095;DHT22;18096;48.142;16.290;2022-07-23T05:17:31;26.00;61.50
14095;DHT22;18096;48.142;16.290;2022-07-23T05:19:57;26.00;61.00
14095;DHT22;18096;48.142;16.290;2022-07-23T05:22:22;26.10;60.50
14095;DHT22;18096;48.142;16.290;2022-07-23T05:24:48;26.20;60.20
14095;DHT22;18096;48.142;16.290;2022-07-23T05:27:13;26.30;59.90
14095;DHT22;18096;48.142;16.290;2022-07-23T05:29:39;26.30;59.60
14095;DHT22;18096;48.142;16.290;2022-07-23T05:32:05;26.40;59.40
14095;DHT22;18096;48.142;16.290;2022-07-23T05:34:30;26.50;59.20
14095;DHT22;18096;48.142;16.290;2022-07-23T05:36:56;26.60;59.20
14095;DHT22;18096;48.142;16.290;2022-07-23T05:39:22;26.70;58.80
14095;DHT22;18096;48.142;16.290;2022-07-23T05:41:47;26.70;58.60
14095;DHT22;18096;48.142;16.290;2022-07-23T05:44:13;26.80;57.70
14095;DHT22;18096;48.142;16.290;2022-07-23T05:46:39;26.90;57.60
14095;DHT22;18096;48.142;16.290;2022-07-23T05:49:04;27.00;57.10
14095;DHT22;18096;48.142;16.290;2022-07-23T05:51:30;27.10;56.60
14095;DHT22;18096;48.142;16.290;2022-07-23T05:53:55;27.20;56.30
14095;DHT22;18096;48.142;16.290;2022-07-23T05:56:21;27.20;56.20
14095;DHT22;18096;48.142;16.290;2022-07-23T05:58:47;27.20;56.30
14095;DHT22;18096;48.142;16.290;2022-07-23T06:01:12;27.30;56.30
14095;DHT22;18096;48.142;16.290;2022-07-23T06:03:38;27.40;56.20
14095;DHT22;18096;48.142;16.290;2022-07-23T06:06:05;27.50;56.40
14095;DHT22;18096;48.142;16.290;2022-07-23T06:08:30;27.50;56.10
14095;DHT22;18096;48.142;16.290;2022-07-23T06:10:56;27.50;56.30
14095;DHT22;18096;48.142;16.290;2022-07-23T06:13:22;27.50;56.50
14095;DHT22;18096;48.142;16.290;2022-07-23T06:15:47;27.50;56.70
14095;DHT22;18096;48.142;16.290;2022-07-23T06:18:13;27.50;56.80
14095;DHT22;18096;48.142;16.290;2022-07-23T06:20:39;27.50;57.10
14095;DHT22;18096;48.142;16.290;2022-07-23T06:23:05;27.50;57.20
14095;DHT22;18096;48.142;16.290;2022-07-23T06:25:30;27.50;57.50
14095;DHT22;18096;48.142;16.290;2022-07-23T06:27:56;27.60;57.70
14095;DHT22;18096;48.142;16.290;2022-07-23T06:30:22;27.60;57.10
14095;DHT22;18096;48.142;16.290;2022-07-23T06:32:47;27.60;56.90
14095;DHT22;18096;48.142;16.290;2022-07-23T06:35:13;27.60;56.70
14095;DHT22;18096;48.142;16.290;2022-07-23T06:37:39;27.70;56.50
14095;DHT22;18096;48.142;16.290;2022-07-23T06:40:05;27.70;56.30
14095;DHT22;18096;48.142;16.290;2022-07-23T06:42:31;27.80;56.00
14095;DHT22;18096;48.142;16.290;2022-07-23T06:44:56;27.80;56.00
14095;DHT22;18096;48.142;16.290;2022-07-23T06:47:22;27.90;55.80
14095;DHT22;18096;48.142;16.290;2022-07-23T06:49:48;27.90;55.30
14095;DHT22;18096;48.142;16.290;2022-07-23T06:52:13;27.90;54.70
14095;DHT22;18096;48.142;16.290;2022-07-23T06:54:39;28.00;54.40
14095;DHT22;18096;48.142;16.290;2022-07-23T06:57:05;28.00;54.30
14095;DHT22;18096;48.142;16.290;2022-07-23T06:59:30;28.00;53.80
14095;DHT22;18096;48.142;16.290;2022-07-23T07:01:56;28.00;53.50
14095;DHT22;18096;48.142;16.290;2022-07-23T07:04:23;28.10;52.60
14095;DHT22;18096;48.142;16.290;2022-07-23T07:06:49;28.10;51.90
14095;DHT22;18096;48.142;16.290;2022-07-23T07:09:15;28.10;51.60
14095;DHT22;18096;48.142;16.290;2022-07-23T07:11:40;28.10;51.60
14095;DHT22;18096;48.142;16.290;2022-07-23T07:14:06;28.10;51.70
14095;DHT22;18096;48.142;16.290;2022-07-23T07:16:32;28.10;51.00
14095;DHT22;18096;48.142;16.290;2022-07-23T07:18:57;28.10;51.30
14095;DHT22;18096;48.142;16.290;2022-07-23T07:21:23;28.10;50.80
14095;DHT22;18096;48.142;16.290;2022-07-23T07:23:49;28.10;51.00
14095;DHT22;18096;48.142;16.290;2022-07-23T07:26:14;28.20;51.10
14095;DHT22;18096;48.142;16.290;2022-07-23T07:28:40;28.20;51.30
14095;DHT22;18096;48.142;16.290;2022-07-23T07:31:06;28.20;50.80
14095;DHT22;18096;48.142;16.290;2022-07-23T07:33:32;28.20;51.10
14095;DHT22;18096;48.142;16.290;2022-07-23T07:35:57;28.30;51.00
14095;DHT22;18096;48.142;16.290;2022-07-23T07:38:23;28.30;50.30
14095;DHT22;18096;48.142;16.290;2022-07-23T07:40:49;28.30;49.70
14095;DHT22;18096;48.142;16.290;2022-07-23T07:43:15;28.30;49.70
14095;DHT22;18096;48.142;16.290;2022-07-23T07:45:41;28.40;49.80
14095;DHT22;18096;48.142;16.290;2022-07-23T07:48:06;28.40;49.60
14095;DHT22;18096;48.142;16.290;2022-07-23T07:50:32;28.40;50.00
14095;DHT22;18096;48.142;16.290;2022-07-23T07:52:58;28.40;50.00
14095;DHT22;18096;48.142;16.290;2022-07-23T07:55:23;28.50;49.80
14095;DHT22;18096;48.142;16.290;2022-07-23T07:57:49;28.50;49.80
14095;DHT22;18096;48.142;16.290;2022-07-23T08:00:15;28.60;49.00
14095;DHT22;18096;48.142;16.290;2022-07-23T08:02:46;28.60;49.30
14095;DHT22;18096;48.142;16.290;2022-07-23T08:05:12;28.50;49.30
14095;DHT22;18096;48.142;16.290;2022-07-23T08:07:38;28.50;49.40
14095;DHT22;18096;48.142;16.290;2022-07-23T08:10:06;28.50;49.40
14095;DHT22;18096;48.142;16.290;2022-07-23T08:15:10;28.50;49.80
14095;DHT22;18096;48.142;16.290;2022-07-23T08:17:36;28.50;49.70
14095;DHT22;18096;48.142;16.290;2022-07-23T08:20:03;28.60;49.70
14095;DHT22;18096;48.142;16.290;2022-07-23T08:25:14;28.70;49.40
14095;DHT22;18096;48.142;16.290;2022-07-23T08:27:40;28.80;49.90
14095;DHT22;18096;48.142;16.290;2022-07-23T08:30:06;28.80;50.00
14095;DHT22;18096;48.142;16.290;2022-07-23T08:32:32;28.90;49.70
14095;DHT22;18096;48.142;16.290;2022-07-23T08:34:58;29.00;49.40
14095;DHT22;18096;48.142;16.290;2022-07-23T08:37:24;29.00;49.50
14095;DHT22;18096;48.142;16.290;2022-07-23T08:39:49;29.20;49.40
14095;DHT22;18096;48.142;16.290;2022-07-23T08:42:15;29.20;49.10
14095;DHT22;18096;48.142;16.290;2022-07-23T08:44:45;29.20;48.70
14095;DHT22;18096;48.142;16.290;2022-07-23T08:47:14;29.30;48.70
14095;DHT22;18096;48.142;16.290;2022-07-23T08:49:41;29.30;48.40
14095;DHT22;18096;48.142;16.290;2022-07-23T08:52:07;29.30;47.80
14095;DHT22;18096;48.142;16.290;2022-07-23T08:54:34;29.30;47.80
14095;DHT22;18096;48.142;16.290;2022-07-23T08:57:00;29.30;48.20
14095;DHT22;18096;48.142;16.290;2022-07-23T08:59:26;29.40;48.30
14095;DHT22;18096;48.142;16.290;2022-07-23T09:01:52;29.40;47.80
14095;DHT22;18096;48.142;16.290;2022-07-23T09:04:17;29.50;47.70
14095;DHT22;18096;48.142;16.290;2022-07-23T09:06:43;29.50;47.60
14095;DHT22;18096;48.142;16.290;2022-07-23T09:09:20;29.60;47.40
14095;DHT22;18096;48.142;16.290;2022-07-23T09:11:47;29.60;47.10
14095;DHT22;18096;48.142;16.290;2022-07-23T09:14:12;29.60;46.00
14095;DHT22;18096;48.142;16.290;2022-07-23T09:16:38;29.70;46.10
14095;DHT22;18096;48.142;16.290;2022-07-23T09:19:05;29.70;46.30
14095;DHT22;18096;48.142;16.290;2022-07-23T09:21:36;29.80;45.90
14095;DHT22;18096;48.142;16.290;2022-07-23T09:24:06;29.80;45.40
14095;DHT22;18096;48.142;16.290;2022-07-23T09:26:48;29.90;45.50
14095;DHT22;18096;48.142;16.290;2022-07-23T09:29:19;29.90;45.30
14095;DHT22;18096;48.142;16.290;2022-07-23T09:31:53;29.90;45.30
14095;DHT22;18096;48.142;16.290;2022-07-23T09:34:23;29.90;45.90
14095;DHT22;18096;48.142;16.290;2022-07-23T09:37:24;30.00;45.80
14095;DHT22;18096;48.142;16.290;2022-07-23T09:39:44;30.00;45.70
14095;DHT22;18096;48.142;16.290;2022-07-23T09:42:24;30.10;45.10
14095;DHT22;18096;48.142;16.290;2022-07-23T09:44:52;30.10;44.00
14095;DHT22;18096;48.142;16.290;2022-07-23T09:47:19;30.10;43.80
14095;DHT22;18096;48.142;16.290;2022-07-23T09:52:34;30.10;45.70
14095;DHT22;18096;48.142;16.290;2022-07-23T09:55:02;30.20;46.20
14095;DHT22;18096;48.142;16.290;2022-07-23T09:57:28;30.20;46.10
14095;DHT22;18096;48.142;16.290;2022-07-23T09:59:58;30.10;45.90
14095;DHT22;18096;48.142;16.290;2022-07-23T10:02:24;30.10;45.10
14095;DHT22;18096;48.142;16.290;2022-07-23T10:04:53;30.10;44.90
14095;DHT22;18096;48.142;16.290;2022-07-23T10:07:21;30.10;44.20
14095;DHT22;18096;48.142;16.290;2022-07-23T10:09:49;30.10;44.70
14095;DHT22;18096;48.142;16.290;2022-07-23T10:12:16;30.20;44.20
14095;DHT22;18096;48.142;16.290;2022-07-23T10:15:00;30.20;44.20
14095;DHT22;18096;48.142;16.290;2022-07-23T10:17:28;30.20;44.20
14095;DHT22;18096;48.142;16.290;2022-07-23T10:19:54;30.30;44.10
14095;DHT22;18096;48.142;16.290;2022-07-23T10:24:53;30.40;43.80
14095;DHT22;18096;48.142;16.290;2022-07-23T10:28:28;30.50;43.70
14095;DHT22;18096;48.142;16.290;2022-07-23T10:34:31;30.60;44.60
14095;DHT22;18096;48.142;16.290;2022-07-23T10:39:36;30.60;45.30
14095;DHT22;18096;48.142;16.290;2022-07-23T10:42:14;30.50;45.30
14095;DHT22;18096;48.142;16.290;2022-07-23T10:44:45;30.50;45.40
14095;DHT22;18096;48.142;16.290;2022-07-23T10:47:12;30.50;45.70
14095;DHT22;18096;48.142;16.290;2022-07-23T10:49:37;30.40;45.90
14095;DHT22;18096;48.142;16.290;2022-07-23T10:52:24;30.40;45.80
14095;DHT22;18096;48.142;16.290;2022-07-23T10:57:50;30.50;45.60
14095;DHT22;18096;48.142;16.290;2022-07-23T11:00:26;30.50;45.70
14095;DHT22;18096;48.142;16.290;2022-07-23T11:02:58;30.50;45.60
14095;DHT22;18096;48.142;16.290;2022-07-23T11:05:46;30.60;45.50
14095;DHT22;18096;48.142;16.290;2022-07-23T11:08:13;30.60;44.20
14095;DHT22;18096;48.142;16.290;2022-07-23T11:16:15;30.60;44.40
14095;DHT22;18096;48.142;16.290;2022-07-23T11:23:58;30.70;45.00
14095;DHT22;18096;48.142;16.290;2022-07-23T11:26:58;30.80;45.10
14095;DHT22;18096;48.142;16.290;2022-07-23T11:34:34;31.00;44.70
14095;DHT22;18096;48.142;16.290;2022-07-23T11:37:02;31.00;44.70
14095;DHT22;18096;48.142;16.290;2022-07-23T11:39:29;31.10;44.60
14095;DHT22;18096;48.142;16.290;2022-07-23T11:41:56;31.10;45.10
14095;DHT22;18096;48.142;16.290;2022-07-23T11:44:35;31.10;45.20
14095;DHT22;18096;48.142;16.290;2022-07-23T11:47:10;31.10;45.10
14095;DHT22;18096;48.142;16.290;2022-07-23T11:49:52;31.20;45.50
14095;DHT22;18096;48.142;16.290;2022-07-23T11:52:18;31.20;46.00
14095;DHT22;18096;48.142;16.290;2022-07-23T11:55:04;31.20;45.40
14095;DHT22;18096;48.142;16.290;2022-07-23T11:57:36;31.20;45.30
14095;DHT22;18096;48.142;16.290;2022-07-23T12:00:10;31.20;45.10
14095;DHT22;18096;48.142;16.290;2022-07-23T12:02:40;31.20;45.30
14095;DHT22;18096;48.142;16.290;2022-07-23T12:05:07;31.20;45.10
14095;DHT22;18096;48.142;16.290;2022-07-23T12:07:42;31.20;45.10
14095;DHT22;18096;48.142;16.290;2022-07-23T12:10:21;31.30;45.00
14095;DHT22;18096;48.142;16.290;2022-07-23T12:12:50;31.20;44.50
14095;DHT22;18096;48.142;16.290;2022-07-23T12:15:19;31.20;44.90
14095;DHT22;18096;48.142;16.290;2022-07-23T12:17:47;31.20;44.50
14095;DHT22;18096;48.142;16.290;2022-07-23T12:20:24;31.20;44.50
14095;DHT22;18096;48.142;16.290;2022-07-23T12:22:53;31.10;44.20
14095;DHT22;18096;48.142;16.290;2022-07-23T12:25:23;31.10;44.10
14095;DHT22;18096;48.142;16.290;2022-07-23T12:30:26;30.90;43.50
14095;DHT22;18096;48.142;16.290;2022-07-23T12:32:54;30.90;44.10
14095;DHT22;18096;48.142;16.290;2022-07-23T12:35:21;30.80;44.10
14095;DHT22;18096;48.142;16.290;2022-07-23T12:37:51;30.80;43.90
14095;DHT22;18096;48.142;16.290;2022-07-23T12:40:37;30.70;43.80
14095;DHT22;18096;48.142;16.290;2022-07-23T12:43:05;30.60;43.80
14095;DHT22;18096;48.142;16.290;2022-07-23T12:45:48;30.50;44.00
14095;DHT22;18096;48.142;16.290;2022-07-23T12:48:21;30.50;44.30
14095;DHT22;18096;48.142;16.290;2022-07-23T12:50:56;30.40;44.20
14095;DHT22;18096;48.142;16.290;2022-07-23T12:53:43;30.40;44.10
14095;DHT22;18096;48.142;16.290;2022-07-23T12:58:43;30.40;42.90
14095;DHT22;18096;48.142;16.290;2022-07-23T13:01:31;30.30;41.90
14095;DHT22;18096;48.142;16.290;2022-07-23T13:06:38;30.20;41.20
14095;DHT22;18096;48.142;16.290;2022-07-23T13:09:06;30.30;41.10
14095;DHT22;18096;48.142;16.290;2022-07-23T13:11:33;30.30;41.70
14095;DHT22;18096;48.142;16.290;2022-07-23T13:13:59;30.30;41.30
14095;DHT22;18096;48.142;16.290;2022-07-23T13:16:28;30.40;41.80
14095;DHT22;18096;48.142;16.290;2022-07-23T13:18:54;30.50;40.70
14095;DHT22;18096;48.142;16.290;2022-07-23T13:21:22;30.60;39.40
14095;DHT22;18096;48.142;16.290;2022-07-23T13:23:47;30.70;38.90
14095;DHT22;18096;48.142;16.290;2022-07-23T13:26:14;30.70;39.30
14095;DHT22;18096;48.142;16.290;2022-07-23T13:28:40;30.80;39.80
14095;DHT22;18096;48.142;16.290;2022-07-23T13:31:05;30.90;39.30
14095;DHT22;18096;48.142;16.290;2022-07-23T13:33:31;30.90;38.70
14095;DHT22;18096;48.142;16.290;2022-07-23T13:35:57;30.90;38.70
14095;DHT22;18096;48.142;16.290;2022-07-23T13:38:23;30.90;38.20
14095;DHT22;18096;48.142;16.290;2022-07-23T13:40:50;30.90;38.40
14095;DHT22;18096;48.142;16.290;2022-07-23T13:43:18;30.80;38.20
14095;DHT22;18096;48.142;16.290;2022-07-23T13:45:44;30.80;38.30
14095;DHT22;18096;48.142;16.290;2022-07-23T13:48:12;30.90;38.50
14095;DHT22;18096;48.142;16.290;2022-07-23T13:50:38;31.00;38.00
14095;DHT22;18096;48.142;16.290;2022-07-23T13:53:07;30.90;37.00
14095;DHT22;18096;48.142;16.290;2022-07-23T13:55:35;30.90;37.30
14095;DHT22;18096;48.142;16.290;2022-07-23T13:58:01;30.90;37.60
14095;DHT22;18096;48.142;16.290;2022-07-23T14:00:28;30.90;37.60
14095;DHT22;18096;48.142;16.290;2022-07-23T14:02:56;30.80;37.90
14095;DHT22;18096;48.142;16.290;2022-07-23T14:05:21;30.80;38.10
14095;DHT22;18096;48.142;16.290;2022-07-23T14:07:47;30.90;37.90
14095;DHT22;18096;48.142;16.290;2022-07-23T14:10:15;30.90;38.10
14095;DHT22;18096;48.142;16.290;2022-07-23T14:12:41;30.90;38.70
14095;DHT22;18096;48.142;16.290;2022-07-23T14:15:07;30.90;37.50
14095;DHT22;18096;48.142;16.290;2022-07-23T14:17:39;30.90;37.90
14095;DHT22;18096;48.142;16.290;2022-07-23T14:20:05;30.90;38.00
14095;DHT22;18096;48.142;16.290;2022-07-23T14:22:32;30.90;37.70
14095;DHT22;18096;48.142;16.290;2022-07-23T14:24:57;30.90;37.70
14095;DHT22;18096;48.142;16.290;2022-07-23T14:27:24;30.90;37.70
14095;DHT22;18096;48.142;16.290;2022-07-23T14:29:50;30.90;38.10
14095;DHT22;18096;48.142;16.290;2022-07-23T14:32:16;30.90;38.10
14095;DHT22;18096;48.142;16.290;2022-07-23T14:34:41;30.90;38.20
14095;DHT22;18096;48.142;16.290;2022-07-23T14:37:07;30.90;38.10
14095;DHT22;18096;48.142;16.290;2022-07-23T14:39:34;30.90;38.60
14095;DHT22;18096;48.142;16.290;2022-07-23T14:42:00;31.00;38.60
14095;DHT22;18096;48.142;16.290;2022-07-23T14:44:26;31.00;38.90
14095;DHT22;18096;48.142;16.290;2022-07-23T14:46:52;31.20;38.30
14095;DHT22;18096;48.142;16.290;2022-07-23T14:49:18;31.20;37.70
14095;DHT22;18096;48.142;16.290;2022-07-23T14:51:44;31.20;37.80
14095;DHT22;18096;48.142;16.290;2022-07-23T14:54:10;31.30;38.30
14095;DHT22;18096;48.142;16.290;2022-07-23T14:56:36;31.30;38.50
14095;DHT22;18096;48.142;16.290;2022-07-23T14:59:05;31.40;38.50
14095;DHT22;18096;48.142;16.290;2022-07-23T15:01:31;31.40;38.60
14095;DHT22;18096;48.142;16.290;2022-07-23T15:03:57;31.40;38.50
14095;DHT22;18096;48.142;16.290;2022-07-23T15:06:23;31.40;38.70
14095;DHT22;18096;48.142;16.290;2022-07-23T15:08:48;31.30;38.90
14095;DHT22;18096;48.142;16.290;2022-07-23T15:11:14;31.30;39.30
14095;DHT22;18096;48.142;16.290;2022-07-23T15:13:40;31.30;39.20
14095;DHT22;18096;48.142;16.290;2022-07-23T15:16:06;31.30;39.20
14095;DHT22;18096;48.142;16.290;2022-07-23T15:18:32;31.30;39.30
14095;DHT22;18096;48.142;16.290;2022-07-23T15:20:58;31.20;38.90
14095;DHT22;18096;48.142;16.290;2022-07-23T15:23:23;31.20;39.10
14095;DHT22;18096;48.142;16.290;2022-07-23T15:25:49;31.20;39.10
14095;DHT22;18096;48.142;16.290;2022-07-23T15:28:15;31.20;39.10
14095;DHT22;18096;48.142;16.290;2022-07-23T15:30:41;31.20;38.60
14095;DHT22;18096;48.142;16.290;2022-07-23T15:33:06;31.20;38.20
14095;DHT22;18096;48.142;16.290;2022-07-23T15:35:32;31.20;39.00
14095;DHT22;18096;48.142;16.290;2022-07-23T15:37:59;31.20;38.40
14095;DHT22;18096;48.142;16.290;2022-07-23T15:40:25;31.20;38.70
14095;DHT22;18096;48.142;16.290;2022-07-23T15:42:51;31.20;38.70
14095;DHT22;18096;48.142;16.290;2022-07-23T15:45:16;31.20;38.70
14095;DHT22;18096;48.142;16.290;2022-07-23T15:47:42;31.30;38.60
14095;DHT22;18096;48.142;16.290;2022-07-23T15:50:09;31.30;38.50
14095;DHT22;18096;48.142;16.290;2022-07-23T15:52:35;31.40;38.60
14095;DHT22;18096;48.142;16.290;2022-07-23T15:55:02;31.40;38.70
14095;DHT22;18096;48.142;16.290;2022-07-23T15:57:28;31.40;38.90
14095;DHT22;18096;48.142;16.290;2022-07-23T15:59:53;31.50;38.90